createdAt,value
2019-04-03T00:00:20.289Z,14.40
2019-04-03T00:02:51.936Z,14.30
2019-04-03T00:05:23.244Z,14.40
2019-04-03T00:07:54.891Z,14.30
2019-04-03T00:10:25.638Z,14.20
2019-04-03T00:12:56.587Z,14.20
2019-04-03T00:15:27.911Z,14.10
2019-04-03T00:17:59.448Z,14.20
2019-04-03T00:20:31.124Z,14.20
2019-04-03T00:23:02.369Z,14.10
2019-04-03T00:25:33.058Z,14.20
2019-04-03T00:28:04.446Z,14.10
2019-04-03T00:30:36.354Z,13.90
2019-04-03T00:33:06.753Z,13.80
2019-04-03T00:35:37.730Z,13.40
2019-04-03T00:38:09.299Z,13.40
2019-04-03T00:40:40.556Z,13.40
2019-04-03T00:43:11.911Z,13.40
2019-04-03T00:45:43.285Z,13.30
2019-04-03T00:48:14.841Z,13.30
2019-04-03T00:50:45.574Z,13.10
2019-04-03T00:53:17.585Z,13.10
2019-04-03T00:55:48.926Z,13.00
2019-04-03T00:58:41.163Z,13.00
2019-04-03T01:01:12.942Z,12.90
2019-04-03T01:03:44.548Z,12.90
2019-04-03T01:06:16.580Z,12.90
2019-04-03T01:08:48.272Z,12.80
2019-04-03T01:11:19.846Z,12.70
2019-04-03T01:13:51.236Z,12.70
2019-04-03T01:16:23.108Z,12.80
2019-04-03T01:18:54.152Z,12.80
2019-04-03T01:21:25.331Z,12.70
2019-04-03T01:23:57.210Z,12.80
2019-04-03T01:26:28.505Z,12.60
2019-04-03T01:29:00.128Z,12.70
2019-04-03T01:31:31.729Z,12.60
2019-04-03T01:34:02.693Z,12.50
2019-04-03T01:36:33.741Z,12.50
2019-04-03T01:39:06.217Z,12.30
2019-04-03T01:41:37.799Z,12.40
2019-04-03T01:44:09.036Z,12.30
2019-04-03T01:46:40.333Z,12.20
2019-04-03T01:49:11.731Z,12.20
2019-04-03T01:51:42.812Z,12.10
2019-04-03T01:54:14.020Z,12.10
2019-04-03T01:56:45.758Z,12.20
2019-04-03T01:59:17.373Z,12.20
2019-04-03T02:01:48.767Z,12.20
2019-04-03T02:04:20.387Z,12.20
2019-04-03T02:06:52.253Z,12.30
2019-04-03T02:09:24.368Z,12.30
2019-04-03T02:11:55.889Z,12.20
2019-04-03T02:14:26.635Z,12.30
2019-04-03T02:16:57.889Z,12.30
2019-04-03T02:19:29.899Z,12.20
2019-04-03T02:22:01.294Z,12.10
2019-04-03T02:24:32.288Z,12.10
2019-04-03T02:27:03.769Z,12.10
2019-04-03T02:29:34.846Z,12.00
2019-04-03T02:32:06.675Z,12.00
2019-04-03T02:34:37.655Z,12.00
2019-04-03T02:37:09.057Z,11.90
2019-04-03T02:39:40.130Z,11.90
2019-04-03T02:42:11.665Z,11.90
2019-04-03T02:44:43.660Z,11.90
2019-04-03T02:47:15.297Z,12.00
2019-04-03T02:49:46.735Z,12.00
2019-04-03T02:52:17.923Z,11.90
2019-04-03T02:54:50.439Z,11.90
2019-04-03T02:57:21.905Z,11.80
2019-04-03T02:59:53.349Z,11.70
2019-04-03T03:02:24.623Z,11.80
2019-04-03T03:04:56.448Z,11.80
2019-04-03T03:07:27.762Z,11.70
2019-04-03T03:09:59.329Z,11.80
2019-04-03T03:12:31.695Z,11.80
2019-04-03T03:15:03.998Z,11.80
2019-04-03T03:17:36.342Z,11.80
2019-04-03T03:20:09.122Z,11.70
2019-04-03T03:22:42.030Z,11.80
2019-04-03T03:25:13.776Z,11.70
2019-04-03T03:27:46.557Z,11.70
2019-04-03T03:30:36.065Z,11.60
2019-04-03T03:32:51.925Z,11.70
2019-04-03T03:35:29.459Z,11.70
2019-04-03T03:37:56.750Z,11.70
2019-04-03T03:40:28.896Z,11.70
2019-04-03T03:43:03.775Z,11.80
2019-04-03T03:45:34.863Z,11.90
2019-04-03T03:48:09.404Z,11.80
2019-04-03T03:50:39.557Z,11.70
2019-04-03T03:53:28.520Z,11.60
2019-04-03T03:56:03.350Z,11.50
2019-04-03T03:58:34.880Z,11.50
2019-04-03T04:01:06.794Z,11.50
2019-04-03T04:03:40.519Z,11.50
2019-04-03T04:06:11.246Z,11.60
2019-04-03T04:08:44.928Z,11.50
2019-04-03T04:11:16.578Z,11.50
2019-04-03T04:13:49.771Z,11.40
2019-04-03T04:16:22.394Z,11.30
2019-04-03T04:18:57.230Z,11.30
2019-04-03T04:21:28.071Z,11.20
2019-04-03T04:23:59.936Z,11.20
2019-04-03T04:26:31.684Z,11.20
2019-04-03T04:29:04.003Z,11.20
2019-04-03T04:31:35.587Z,11.20
2019-04-03T04:34:07.033Z,11.10
2019-04-03T04:36:38.332Z,11.20
2019-04-03T04:39:10.495Z,11.20
2019-04-03T04:41:42.071Z,11.20
2019-04-03T04:44:15.059Z,11.10
2019-04-03T04:46:47.032Z,11.20
2019-04-03T04:49:18.711Z,11.10
2019-04-03T04:51:50.008Z,11.10
2019-04-03T04:54:21.373Z,11.10
2019-04-03T04:56:53.092Z,11.10
2019-04-03T04:59:24.821Z,11.00
2019-04-03T05:01:56.223Z,11.00
2019-04-03T05:04:28.103Z,10.90
2019-04-03T05:07:00.189Z,10.80
2019-04-03T05:09:34.650Z,10.80
2019-04-03T05:12:09.439Z,10.90
2019-04-03T05:14:40.160Z,10.90
2019-04-03T05:17:11.008Z,10.90
2019-04-03T05:19:42.271Z,11.00
2019-04-03T05:22:13.384Z,10.90
2019-04-03T05:24:45.332Z,10.90
2019-04-03T05:27:17.062Z,10.90
2019-04-03T05:29:48.838Z,11.00
2019-04-03T05:32:21.166Z,10.90
2019-04-03T05:34:52.930Z,10.90
2019-04-03T05:37:24.845Z,10.90
2019-04-03T05:39:56.698Z,10.90
2019-04-03T05:42:29.221Z,10.80
2019-04-03T05:45:03.838Z,10.80
2019-04-03T05:47:33.952Z,10.80
2019-04-03T05:50:05.557Z,10.80
2019-04-03T05:52:36.959Z,10.90
2019-04-03T05:55:09.656Z,10.90
2019-04-03T05:57:44.943Z,10.80
2019-04-03T06:00:16.212Z,10.80
2019-04-03T06:02:48.388Z,10.80
2019-04-03T06:05:19.668Z,10.90
2019-04-03T06:07:51.798Z,10.90
2019-04-03T06:10:23.650Z,11.00
2019-04-03T06:12:55.076Z,11.00
2019-04-03T06:15:27.231Z,11.10
2019-04-03T06:17:58.460Z,11.00
2019-04-03T06:20:30.690Z,11.10
2019-04-03T06:23:02.489Z,11.10
2019-04-03T06:25:33.995Z,11.20
2019-04-03T06:28:05.509Z,11.20
2019-04-03T06:30:37.274Z,11.30
2019-04-03T06:33:09.451Z,11.30
2019-04-03T06:35:42.973Z,11.30
2019-04-03T06:38:15.249Z,11.40
2019-04-03T06:40:47.173Z,11.40
2019-04-03T06:43:18.556Z,11.40
2019-04-03T06:45:49.843Z,11.50
2019-04-03T06:48:21.150Z,11.40
2019-04-03T06:50:52.645Z,11.40
2019-04-03T06:53:27.642Z,11.40
2019-04-03T06:55:57.843Z,11.50
2019-04-03T06:58:38.025Z,11.50
2019-04-03T07:01:03.250Z,11.60
2019-04-03T07:03:35.090Z,11.70
2019-04-03T07:06:07.202Z,11.60
2019-04-03T07:08:40.935Z,11.80
2019-04-03T07:11:22.830Z,11.80
2019-04-03T07:13:44.203Z,11.80
2019-04-03T07:16:18.595Z,11.80
2019-04-03T07:18:50.540Z,11.70
2019-04-03T07:21:23.173Z,11.70
2019-04-03T07:23:54.497Z,11.70
2019-04-03T07:26:25.212Z,11.70
2019-04-03T07:28:56.535Z,11.70
2019-04-03T07:31:28.638Z,11.70
2019-04-03T07:34:01.797Z,11.70
2019-04-03T07:36:33.449Z,11.70
2019-04-03T07:39:10.417Z,11.60
2019-04-03T07:41:41.591Z,11.60
2019-04-03T07:44:13.618Z,11.60
2019-04-03T07:46:45.680Z,11.60
2019-04-03T07:49:17.430Z,11.70
2019-04-03T07:51:48.967Z,11.70
2019-04-03T07:54:21.959Z,11.70
2019-04-03T07:56:56.417Z,11.70
2019-04-03T07:59:26.582Z,11.60
2019-04-03T08:01:57.909Z,11.50
2019-04-03T08:04:29.153Z,11.50
2019-04-03T08:07:00.833Z,11.70
2019-04-03T08:09:32.642Z,11.70
2019-04-03T08:12:04.516Z,11.70
2019-04-03T08:14:36.223Z,11.70
2019-04-03T08:17:07.171Z,11.70
2019-04-03T08:19:39.023Z,11.70
2019-04-03T08:22:10.905Z,11.90
2019-04-03T08:24:42.941Z,12.00
2019-04-03T08:27:14.945Z,12.00
2019-04-03T08:29:46.547Z,12.00
2019-04-03T08:32:18.487Z,12.20
2019-04-03T08:34:49.503Z,12.50
2019-04-03T08:37:29.505Z,12.70
2019-04-03T08:39:57.388Z,13.00
2019-04-03T08:42:29.814Z,12.80
2019-04-03T08:45:02.100Z,12.90
2019-04-03T08:47:36.800Z,12.80
2019-04-03T08:50:08.070Z,13.00
2019-04-03T08:52:39.810Z,12.80
2019-04-03T08:55:14.023Z,12.70
2019-04-03T08:57:46.848Z,12.20
2019-04-03T09:00:18.785Z,11.40
2019-04-03T09:02:50.449Z,11.10
2019-04-03T09:05:21.827Z,10.80
2019-04-03T09:07:55.379Z,10.70
2019-04-03T09:10:27.277Z,10.60
2019-04-03T09:12:59.402Z,10.70
2019-04-03T09:15:31.321Z,10.80
2019-04-03T09:18:05.546Z,10.70
2019-04-03T09:20:36.077Z,10.60
2019-04-03T09:23:07.667Z,10.50
2019-04-03T09:25:39.599Z,10.40
2019-04-03T09:28:11.119Z,10.20
2019-04-03T09:30:42.567Z,10.00
2019-04-03T09:33:14.495Z,10.10
2019-04-03T09:35:46.336Z,10.20
2019-04-03T09:38:17.746Z,10.50
2019-04-03T09:40:49.824Z,10.50
2019-04-03T09:43:22.237Z,10.40
2019-04-03T09:45:53.345Z,10.30
2019-04-03T09:48:24.097Z,10.40
2019-04-03T09:50:56.473Z,10.30
2019-04-03T09:53:28.777Z,10.10
2019-04-03T09:56:00.845Z,9.80
2019-04-03T09:58:34.588Z,9.80
2019-04-03T10:01:06.095Z,9.70
2019-04-03T10:03:38.462Z,9.80
2019-04-03T10:06:10.131Z,9.80
2019-04-03T10:08:41.627Z,9.50
2019-04-03T10:11:15.498Z,9.40
2019-04-03T10:13:46.425Z,9.60
2019-04-03T10:16:17.461Z,9.70
2019-04-03T10:18:48.526Z,9.70
2019-04-03T10:21:19.912Z,9.80
2019-04-03T10:23:52.528Z,9.80
2019-04-03T10:26:24.404Z,9.90
2019-04-03T10:28:55.943Z,10.20
2019-04-03T10:31:28.175Z,10.60
2019-04-03T10:33:59.003Z,10.70
2019-04-03T10:36:30.753Z,10.80
2019-04-03T10:39:02.317Z,10.90
2019-04-03T10:41:33.272Z,11.10
2019-04-03T10:44:04.012Z,11.30
2019-04-03T10:46:35.489Z,11.60
2019-04-03T10:49:07.293Z,11.80
2019-04-03T10:51:40.583Z,12.00
2019-04-03T10:54:12.387Z,12.20
2019-04-03T10:56:44.135Z,12.10
2019-04-03T10:59:17.667Z,12.00
2019-04-03T11:01:48.400Z,12.10
2019-04-03T11:04:20.568Z,12.40
2019-04-03T11:06:52.387Z,12.40
2019-04-03T11:09:23.819Z,12.30
2019-04-03T11:11:55.592Z,12.30
2019-04-03T11:14:27.595Z,12.10
2019-04-03T11:16:59.173Z,11.70
2019-04-03T11:19:31.402Z,11.60
2019-04-03T11:22:02.990Z,11.30
2019-04-03T11:24:37.710Z,10.90
2019-04-03T11:27:08.583Z,10.90
2019-04-03T11:29:41.973Z,10.80
2019-04-03T11:32:13.428Z,10.70
2019-04-03T11:34:48.873Z,10.60
2019-04-03T11:37:18.863Z,10.60
2019-04-03T11:40:01.330Z,10.30
2019-04-03T11:42:27.162Z,10.30
2019-04-03T11:44:56.240Z,10.40
2019-04-03T11:47:27.882Z,10.30
2019-04-03T11:50:00.041Z,10.40
2019-04-03T11:52:31.270Z,10.40
2019-04-03T11:55:03.083Z,10.40
2019-04-03T11:57:35.161Z,10.40
2019-04-03T12:00:12.001Z,10.40
2019-04-03T12:02:44.738Z,10.50
2019-04-03T12:05:20.967Z,10.50
2019-04-03T12:07:55.662Z,10.40
2019-04-03T12:10:28.218Z,10.20
2019-04-03T12:13:02.256Z,10.20
2019-04-03T12:15:34.283Z,10.20
2019-04-03T12:18:07.331Z,10.30
2019-04-03T12:20:43.775Z,10.20
2019-04-03T12:23:15.256Z,10.30
2019-04-03T12:25:47.350Z,10.20
2019-04-03T12:28:19.963Z,10.10
2019-04-03T12:30:53.058Z,10.20
2019-04-03T12:33:25.795Z,10.40
2019-04-03T12:35:57.468Z,10.40
2019-04-03T12:38:29.777Z,10.60
2019-04-03T12:41:03.775Z,10.80
2019-04-03T12:43:36.181Z,11.20
2019-04-03T12:46:07.841Z,11.50
2019-04-03T12:48:39.306Z,11.70
2019-04-03T12:51:11.063Z,11.80
2019-04-03T12:53:42.743Z,12.00
2019-04-03T12:56:15.357Z,12.10
2019-04-03T12:58:46.560Z,12.30
2019-04-03T13:01:19.818Z,12.20
2019-04-03T13:03:51.865Z,12.00
2019-04-03T13:06:26.652Z,11.50
2019-04-03T13:08:59.251Z,11.50
2019-04-03T13:11:32.998Z,11.60
2019-04-03T13:14:03.863Z,11.70
2019-04-03T13:16:35.454Z,11.80
2019-04-03T13:19:08.510Z,11.80
2019-04-03T13:21:40.657Z,11.80
2019-04-03T13:24:12.682Z,11.50
2019-04-03T13:26:44.933Z,11.60
2019-04-03T13:29:16.443Z,11.50
2019-04-03T13:31:59.184Z,11.30
2019-04-03T13:34:36.378Z,11.00
2019-04-03T13:37:07.477Z,11.00
2019-04-03T13:39:39.707Z,11.00
2019-04-03T13:42:13.892Z,10.80
2019-04-03T13:44:49.161Z,10.90
2019-04-03T13:47:20.870Z,10.80
2019-04-03T13:49:53.139Z,10.90
2019-04-03T13:52:24.682Z,11.00
2019-04-03T13:54:58.330Z,11.00
2019-04-03T13:57:32.606Z,11.20
2019-04-03T14:00:17.167Z,11.00
2019-04-03T14:02:37.809Z,10.50
2019-04-03T14:05:10.878Z,10.50
2019-04-03T14:07:42.806Z,10.50
2019-04-03T14:10:14.588Z,10.50
2019-04-03T14:12:46.448Z,10.40
2019-04-03T14:15:20.343Z,10.30
2019-04-03T14:17:56.676Z,10.20
2019-04-03T14:20:25.104Z,10.10
2019-04-03T14:22:55.551Z,9.90
2019-04-03T14:25:31.401Z,9.80
2019-04-03T14:28:03.188Z,9.90
2019-04-03T14:30:33.977Z,9.90
2019-04-03T14:33:05.623Z,9.70
2019-04-03T14:35:49.357Z,9.60
2019-04-03T14:38:11.914Z,9.60
2019-04-03T14:40:44.365Z,9.60
2019-04-03T14:43:16.570Z,9.60
2019-04-03T14:45:48.360Z,9.40
2019-04-03T14:48:20.719Z,9.30
2019-04-03T14:50:52.901Z,9.30
2019-04-03T14:53:24.963Z,9.20
2019-04-03T14:55:56.334Z,9.20
2019-04-03T14:58:27.935Z,9.10
2019-04-03T15:01:00.029Z,9.20
2019-04-03T15:03:33.615Z,9.20
2019-04-03T15:06:04.747Z,9.00
2019-04-03T15:08:37.028Z,9.00
2019-04-03T15:11:08.849Z,8.90
2019-04-03T15:13:40.157Z,8.70
2019-04-03T15:16:10.995Z,8.70
2019-04-03T15:18:43.064Z,8.50
2019-04-03T15:21:15.547Z,8.50
2019-04-03T15:23:47.560Z,8.40
2019-04-03T15:26:21.747Z,8.30
2019-04-03T15:28:56.215Z,8.20
2019-04-03T15:31:33.914Z,8.10
2019-04-03T15:34:07.975Z,8.00
2019-04-03T15:36:40.852Z,8.10
2019-04-03T15:39:16.392Z,8.20
2019-04-03T15:41:47.421Z,8.30
2019-04-03T15:44:21.378Z,8.20
2019-04-03T15:46:52.205Z,8.20
2019-04-03T15:49:25.591Z,8.00
2019-04-03T15:51:59.152Z,7.90
2019-04-03T15:54:32.903Z,8.00
2019-04-03T15:57:03.232Z,8.10
2019-04-03T15:59:34.558Z,8.00
2019-04-03T16:02:06.126Z,8.00
2019-04-03T16:04:37.584Z,8.10
2019-04-03T16:07:09.312Z,8.10
2019-04-03T16:09:40.690Z,8.10
2019-04-03T16:12:12.475Z,8.10
2019-04-03T16:14:44.266Z,8.20
2019-04-03T16:17:16.761Z,8.10
2019-04-03T16:19:48.254Z,8.10
2019-04-03T16:22:20.470Z,8.00
2019-04-03T16:24:53.682Z,8.00
2019-04-03T16:27:27.720Z,8.00
2019-04-03T16:29:58.613Z,8.00
2019-04-03T16:32:29.793Z,8.00
2019-04-03T16:35:01.610Z,8.00
2019-04-03T16:37:33.685Z,8.00
2019-04-03T16:40:08.017Z,8.00
2019-04-03T16:42:40.160Z,7.90
2019-04-03T16:45:12.677Z,7.90
2019-04-03T16:47:45.219Z,7.90
2019-04-03T16:50:18.521Z,7.80
2019-04-03T16:52:51.026Z,7.70
2019-04-03T16:55:22.813Z,7.80
2019-04-03T16:57:55.301Z,7.90
2019-04-03T17:00:26.472Z,7.80
2019-04-03T17:02:58.283Z,7.80
2019-04-03T17:05:30.003Z,7.70
2019-04-03T17:08:01.186Z,7.70
2019-04-03T17:10:32.761Z,7.80
2019-04-03T17:13:06.479Z,7.80
2019-04-03T17:15:37.978Z,7.70
2019-04-03T17:18:10.764Z,7.60
2019-04-03T17:20:42.735Z,7.60
2019-04-03T17:23:14.571Z,7.70
2019-04-03T17:25:50.046Z,7.50
2019-04-03T17:28:20.223Z,7.50
2019-04-03T17:30:54.961Z,7.40
2019-04-03T17:33:27.073Z,7.40
2019-04-03T17:35:59.108Z,7.40
2019-04-03T17:38:32.618Z,7.20
2019-04-03T17:41:05.026Z,7.30
2019-04-03T17:43:38.811Z,7.50
2019-04-03T17:46:10.679Z,7.40
2019-04-03T17:48:44.211Z,7.30
2019-04-03T17:51:16.175Z,7.20
2019-04-03T17:53:48.801Z,7.20
2019-04-03T17:56:21.640Z,7.30
2019-04-03T17:58:53.185Z,7.30
2019-04-03T18:01:24.711Z,7.30
2019-04-03T18:03:55.706Z,7.30
2019-04-03T18:06:27.944Z,7.30
2019-04-03T18:09:03.312Z,7.30
2019-04-03T18:11:34.450Z,7.10
2019-04-03T18:14:05.758Z,7.00
2019-04-03T18:16:37.423Z,7.00
2019-04-03T18:19:09.523Z,7.00
2019-04-03T18:21:41.655Z,7.10
2019-04-03T18:24:13.649Z,7.10
2019-04-03T18:26:45.472Z,7.00
2019-04-03T18:29:17.427Z,6.90
2019-04-03T18:31:49.871Z,6.90
2019-04-03T18:34:23.766Z,6.90
2019-04-03T18:36:57.719Z,6.90
2019-04-03T18:39:29.462Z,6.90
2019-04-03T18:42:02.560Z,6.80
2019-04-03T18:44:36.039Z,6.80
2019-04-03T18:47:08.384Z,7.00
2019-04-03T18:49:40.435Z,7.10
2019-04-03T18:52:13.645Z,7.00
2019-04-03T18:54:45.661Z,7.00
2019-04-03T18:57:17.803Z,7.00
2019-04-03T18:59:49.793Z,7.00
2019-04-03T19:02:22.587Z,7.00
2019-04-03T19:05:01.803Z,7.00
2019-04-03T19:07:29.795Z,7.00
2019-04-03T19:10:07.425Z,6.90
2019-04-03T19:12:36.644Z,7.00
2019-04-03T19:15:09.655Z,7.00
2019-04-03T19:17:42.199Z,6.90
2019-04-03T19:20:14.337Z,6.80
2019-04-03T19:22:46.659Z,6.80
2019-04-03T19:25:18.108Z,6.80
2019-04-03T19:27:50.091Z,6.70
2019-04-03T19:30:21.811Z,6.70
2019-04-03T19:32:53.970Z,6.70
2019-04-03T19:35:28.487Z,6.70
2019-04-03T19:38:00.806Z,6.70
2019-04-03T19:40:31.999Z,6.70
2019-04-03T19:43:03.759Z,6.70
2019-04-03T19:45:34.589Z,6.80
2019-04-03T19:48:06.919Z,6.80
2019-04-03T19:50:37.890Z,6.70
2019-04-03T19:53:09.101Z,6.60
2019-04-03T19:55:41.030Z,6.70
2019-04-03T19:58:13.087Z,6.70
2019-04-03T20:00:45.149Z,6.80
2019-04-03T20:03:17.390Z,6.80
2019-04-03T20:05:50.804Z,6.70
2019-04-03T20:08:23.540Z,6.80
2019-04-03T20:10:54.825Z,6.90
2019-04-03T20:13:28.059Z,6.70
2019-04-03T20:15:59.576Z,6.70
2019-04-03T20:18:31.516Z,6.70
2019-04-03T20:21:03.799Z,6.70
2019-04-03T20:23:35.461Z,6.60
2019-04-03T20:26:07.477Z,6.60
2019-04-03T20:28:39.046Z,6.60
2019-04-03T20:31:10.066Z,6.60
2019-04-03T20:33:42.348Z,6.60
2019-04-03T20:36:16.526Z,6.60
2019-04-03T20:38:46.468Z,6.60
2019-04-03T20:41:17.618Z,6.50
2019-04-03T20:43:48.905Z,6.50
2019-04-03T20:46:20.285Z,6.50
2019-04-03T20:48:51.955Z,6.60
2019-04-03T20:51:23.682Z,6.60
2019-04-03T20:53:55.404Z,6.60
2019-04-03T20:56:28.992Z,6.60
2019-04-03T20:59:00.849Z,6.80
2019-04-03T21:01:35.256Z,6.80
2019-04-03T21:04:05.719Z,6.70
2019-04-03T21:06:37.413Z,6.70
2019-04-03T21:09:10.476Z,6.70
2019-04-03T21:11:41.212Z,6.70
2019-04-03T21:14:13.310Z,6.70
2019-04-03T21:16:47.751Z,6.80
2019-04-03T21:19:21.212Z,6.80
2019-04-03T21:21:53.196Z,6.70
2019-04-03T21:24:24.394Z,6.60
2019-04-03T21:26:56.156Z,6.60
2019-04-03T21:29:27.897Z,6.60
2019-04-03T21:31:59.377Z,6.70
2019-04-03T21:34:32.449Z,6.50
2019-04-03T21:37:03.102Z,6.60
2019-04-03T21:39:34.702Z,6.60
2019-04-03T21:42:05.507Z,6.60
2019-04-03T21:44:36.894Z,6.60
2019-04-03T21:47:08.005Z,6.50
2019-04-03T21:49:38.724Z,6.60
2019-04-03T21:52:10.661Z,6.60
2019-04-03T21:54:42.255Z,6.60
2019-04-03T21:57:13.660Z,6.60
2019-04-03T21:59:45.406Z,6.60
2019-04-03T22:02:16.945Z,6.50
2019-04-03T22:04:47.932Z,6.60
2019-04-03T22:07:19.052Z,6.70
2019-04-03T22:09:50.399Z,6.70
2019-04-03T22:12:21.400Z,6.70
2019-04-03T22:14:52.747Z,6.50
2019-04-03T22:17:24.540Z,6.50
2019-04-03T22:19:58.379Z,6.50
2019-04-03T22:22:30.008Z,6.50
2019-04-03T22:25:01.665Z,6.70
2019-04-03T22:27:33.509Z,6.60
2019-04-03T22:30:05.025Z,6.60
2019-04-03T22:32:36.106Z,6.50
2019-04-03T22:35:08.933Z,6.60
2019-04-03T22:37:40.411Z,6.50
2019-04-03T22:40:11.667Z,6.60
2019-04-03T22:42:45.320Z,6.50
2019-04-03T22:45:16.199Z,6.60
2019-04-03T22:47:47.664Z,6.70
2019-04-03T22:50:19.235Z,6.80
2019-04-03T22:52:50.818Z,6.70
2019-04-03T22:55:22.424Z,6.70
2019-04-03T22:57:53.865Z,6.80
2019-04-03T23:00:25.768Z,6.80
2019-04-03T23:02:58.145Z,6.60
2019-04-03T23:05:29.756Z,6.50
2019-04-03T23:08:01.070Z,6.50
2019-04-03T23:10:32.498Z,6.60
2019-04-03T23:13:05.265Z,6.70
2019-04-03T23:15:39.258Z,6.60
2019-04-03T23:18:09.163Z,6.60
2019-04-03T23:20:40.744Z,6.50
2019-04-03T23:23:12.084Z,6.60
2019-04-03T23:25:43.686Z,6.60
2019-04-03T23:28:15.157Z,6.50
2019-04-03T23:30:46.774Z,6.50
2019-04-03T23:33:18.067Z,6.50
2019-04-03T23:35:51.125Z,6.60
2019-04-03T23:38:22.574Z,6.50
2019-04-03T23:40:53.272Z,6.50
2019-04-03T23:43:24.567Z,6.50
2019-04-03T23:45:54.983Z,6.60
2019-04-03T23:48:26.427Z,6.50
2019-04-03T23:50:58.070Z,6.60
2019-04-03T23:53:31.963Z,6.50
2019-04-03T23:56:02.632Z,6.50
2019-04-03T23:58:37.585Z,6.50
